Time;durP1;ratioP1;P1;durP2;ratioP2;P2;SDS_P1;SDS_P2;PMS_P1;PMS_P2;Temp;Humidity;BMP_temperature;BMP_pressure;BME280_temperature;BME280_humidity;BME280_pressure;Samples;Min_cycle;Max_cycle;Signal;HPM_P1;HPM_P2
2021/08/09 00:00:02;;;;;;;2.72;2.10;;;;;;;21.27;48.89;95209.41;5110855;27;20039;-68
2021/08/09 00:02:35;;;;;;;;;;;;;;;21.30;49.40;95224.72;5111608;27;20075;-68
2021/08/09 00:05:03;;;;;;;2.80;2.40;;;;;;;21.30;49.53;95211.47;5111047;27;20317;-68
2021/08/09 00:07:30;;;;;;;4.65;2.30;;;;;;;21.29;49.65;95212.56;5109535;27;20485;-68
2021/08/09 00:09:56;;;;;;;3.92;2.80;;;;;;;21.29;50.83;95207.25;5109553;27;20039;-68
2021/08/09 00:12:23;;;;;;;3.60;2.13;;;;;;;20.95;52.49;95205.66;5112103;27;20036;-68
2021/08/09 00:14:50;;;;;;;3.10;2.30;;;;;;;20.85;52.99;95208.44;5094936;27;20053;-68
2021/08/09 00:17:17;;;;;;;4.57;2.22;;;;;;;20.74;52.97;95213.09;5110327;27;20737;-68
2021/08/09 00:19:44;;;;;;;2.28;1.95;;;;;;;20.62;53.23;95210.88;5112491;27;20043;-67
2021/08/09 00:22:11;;;;;;;3.10;2.15;;;;;;;20.52;53.82;95195.88;5112277;27;20623;-68
2021/08/09 00:24:37;;;;;;;3.58;2.28;;;;;;;20.61;53.48;95209.28;5110564;27;20554;-68
2021/08/09 00:27:04;;;;;;;3.00;2.08;;;;;;;20.63;53.43;95212.44;5111099;27;20798;-68
2021/08/09 00:29:32;;;;;;;3.25;2.05;;;;;;;20.71;53.18;95209.16;5110546;27;20104;-67
2021/08/09 00:31:59;;;;;;;3.78;2.30;;;;;;;20.77;52.87;95205.34;5091711;27;20043;-67
2021/08/09 00:34:26;;;;;;;3.20;2.67;;;;;;;20.78;52.20;95211.47;5111381;27;20042;-67
2021/08/09 00:36:54;;;;;;;3.40;2.28;;;;;;;20.74;52.80;95207.78;5091878;27;20039;-67
2021/08/09 00:39:20;;;;;;;4.55;2.97;;;;;;;20.63;53.07;95215.06;5091915;28;20459;-68
2021/08/09 00:41:48;;;;;;;4.25;2.08;;;;;;;20.63;52.49;95207.13;5092752;27;20043;-67
2021/08/09 00:44:15;;;;;;;4.70;2.10;;;;;;;20.63;51.80;95212.44;5091622;28;20594;-67
2021/08/09 00:46:43;;;;;;;2.47;2.03;;;;;;;20.68;50.82;95220.31;5093010;27;20043;-68
2021/08/09 00:49:10;;;;;;;3.03;2.45;;;;;;;20.71;51.00;95225.03;5092873;27;20093;-68
2021/08/09 00:51:37;;;;;;;3.17;1.90;;;;;;;20.70;51.62;95228.75;5091537;28;20032;-68
2021/08/09 00:54:10;;;;;;;6.22;2.40;;;;;;;20.75;51.22;95226.03;5093099;28;20044;-68
2021/08/09 00:56:40;;;;;;;3.05;2.30;;;;;;;20.61;52.38;95235.75;5092580;27;20046;-68
2021/08/09 00:59:08;;;;;;;7.43;2.15;;;;;;;20.56;53.09;95217.25;5091451;28;20047;-68
2021/08/09 01:01:36;;;;;;;3.95;2.40;;;;;;;20.57;53.06;95230.22;5091568;27;20501;-68
2021/08/09 01:04:06;;;;;;;2.83;2.42;;;;;;;20.54;54.83;95227.34;5091249;28;20067;-68
2021/08/09 01:06:33;;;;;;;2.50;2.30;;;;;;;20.43;54.46;95219.53;5074889;28;20134;-68
2021/08/09 01:09:06;;;;;;;8.70;2.78;;;;;;;20.43;54.97;95224.81;5092331;27;20043;-68
2021/08/09 01:11:52;;;;;;;6.10;2.85;;;;;;;20.42;56.38;95228.53;5091517;28;20055;-68
2021/08/09 01:14:46;;;;;;;5.00;3.00;;;;;;;20.26;58.23;95224.50;5091419;27;20044;-68
2021/08/09 01:17:18;;;;;;;3.92;3.10;;;;;;;19.99;59.32;95231.13;5110204;27;20086;-67
2021/08/09 01:19:49;;;;;;;3.90;2.90;;;;;;;19.84;59.71;95223.34;5092692;27;20455;-67
2021/08/09 01:22:21;;;;;;;5.47;3.47;;;;;;;19.58;60.64;95215.66;5090939;28;20397;-68
2021/08/09 01:25:00;;;;;;;6.22;3.60;;;;;;;19.55;61.53;95216.19;5091204;27;20066;-67
2021/08/09 01:27:29;;;;;;;7.80;3.85;;;;;;;19.40;61.93;95229.53;5090914;28;20051;-67
2021/08/09 01:30:00;;;;;;;7.50;3.75;;;;;;;19.40;61.36;95234.81;5092767;27;20501;-68
2021/08/09 01:32:31;;;;;;;5.30;3.30;;;;;;;19.32;62.14;95227.47;5090519;28;20039;-68
2021/08/09 01:34:59;;;;;;;4.68;3.83;;;;;;;19.38;61.67;95226.41;5091489;27;20054;-68
2021/08/09 01:37:28;;;;;;;4.72;3.58;;;;;;;19.24;62.21;95220.94;5091011;27;20516;-67
2021/08/09 01:39:55;;;;;;;3.92;3.58;;;;;;;19.31;62.26;95231.22;5088753;28;20044;-67
2021/08/09 01:42:23;;;;;;;4.07;3.40;;;;;;;19.29;62.33;95234.91;5092483;27;20505;-67
2021/08/09 01:44:50;;;;;;;5.97;3.50;;;;;;;19.34;62.18;95233.28;5110492;27;20056;-68
2021/08/09 01:47:19;;;;;;;6.95;3.58;;;;;;;19.27;62.67;95231.75;5090935;28;20058;-68
2021/08/09 01:49:47;;;;;;;3.42;3.08;;;;;;;19.24;61.89;95227.00;5092744;28;20051;-67
2021/08/09 01:52:15;;;;;;;3.88;3.50;;;;;;;19.28;61.82;95228.06;5109122;28;20050;-68
2021/08/09 01:54:43;;;;;;;8.73;3.63;;;;;;;19.31;62.74;95231.22;5090361;28;20067;-68
2021/08/09 01:57:10;;;;;;;4.65;3.45;;;;;;;19.26;62.36;95230.16;5110261;28;20463;-68
2021/08/09 01:59:37;;;;;;;3.97;3.17;;;;;;;19.24;62.75;95227.00;5090990;28;20420;-68
2021/08/09 02:02:05;;;;;;;3.70;3.22;;;;;;;19.19;62.91;95229.69;5091804;28;20481;-68
2021/08/09 02:04:32;;;;;;;5.85;3.05;;;;;;;19.22;62.34;95231.78;5091244;28;20050;-68
2021/08/09 02:06:59;;;;;;;5.15;3.30;;;;;;;19.17;63.66;95215.97;5092335;28;20053;-68
2021/08/09 02:09:26;;;;;;;4.32;3.38;;;;;;;19.21;63.66;95227.59;5096651;27;20042;-68
2021/08/09 02:12:01;;;;;;;4.95;3.70;;;;;;;19.19;63.33;95229.69;5095344;27;20047;-68
2021/08/09 02:14:34;;;;;;;7.03;3.45;;;;;;;19.17;64.07;95237.09;5094491;28;20073;-68
2021/08/09 02:17:03;;;;;;;5.93;3.90;;;;;;;19.15;63.94;95252.44;5098841;27;20035;-68
2021/08/09 02:19:38;;;;;;;8.13;4.13;;;;;;;19.04;63.92;95253.56;5094445;28;20501;-68
2021/08/09 02:22:37;;;;;;;4.88;3.30;;;;;;;19.04;64.10;95264.13;5094648;27;20067;-67
2021/08/09 02:25:09;;;;;;;5.53;3.30;;;;;;;18.91;63.60;95261.03;5094839;28;20059;-67
2021/08/09 02:27:49;;;;;;;6.63;3.80;;;;;;;18.87;64.69;95267.91;5094470;27;20072;-67
2021/08/09 02:30:21;;;;;;;6.07;3.47;;;;;;;18.81;65.15;95271.63;5094384;28;20078;-68
2021/08/09 02:32:52;;;;;;;4.60;3.42;;;;;;;18.69;65.17;95263.22;5094047;27;20047;-68
2021/08/09 02:35:22;;;;;;;5.22;3.53;;;;;;;18.68;65.68;95266.94;5093034;28;20394;-68
2021/08/09 02:37:55;;;;;;;4.15;3.25;;;;;;;18.47;65.73;95251.16;5095650;27;20605;-68
2021/08/09 02:40:24;;;;;;;7.30;3.90;;;;;;;18.60;66.26;95275.38;5109542;27;20075;-68
2021/08/09 02:42:51;;;;;;;5.03;3.88;;;;;;;18.57;66.16;95271.47;5094538;27;20093;-68
2021/08/09 02:45:19;;;;;;;6.40;3.63;;;;;;;18.53;66.79;95276.47;5094446;27;20450;-68
2021/08/09 02:47:49;;;;;;;4.70;4.05;;;;;;;18.45;66.76;95261.19;5094357;27;20417;-68
2021/08/09 02:50:16;;;;;;;4.65;4.07;;;;;;;18.49;66.71;95270.16;5115037;27;20036;-68
2021/08/09 02:52:44;;;;;;;4.68;3.50;;;;;;;18.44;67.36;95267.56;5094083;27;20046;-68
2021/08/09 02:55:14;;;;;;;15.95;4.07;;;;;;;18.40;66.74;95271.78;5093437;28;20052;-68
2021/08/09 02:57:41;;;;;;;7.32;4.00;;;;;;;18.36;67.01;95276.00;5113032;27;20096;-67
2021/08/09 03:00:08;;;;;;;6.22;3.90;;;;;;;18.33;66.94;95271.28;5093822;27;20043;-67
2021/08/09 03:02:37;;;;;;;10.77;4.00;;;;;;;18.34;66.91;95272.84;5093704;28;20412;-67
2021/08/09 03:05:10;;;;;;;4.88;3.53;;;;;;;18.34;66.99;95278.13;5113558;27;20054;-67
2021/08/09 03:07:40;;;;;;;8.60;4.03;;;;;;;18.30;66.75;95287.63;5092985;28;20122;-68
2021/08/09 03:10:10;;;;;;;10.73;3.28;;;;;;;18.23;67.39;95292.41;5095052;27;20082;-67
2021/08/09 03:12:38;;;;;;;10.73;4.28;;;;;;;18.12;68.32;95297.69;5093638;27;20039;-68
2021/08/09 03:15:06;;;;;;;11.43;3.90;;;;;;;18.09;68.86;95298.22;5093503;28;20074;-68
2021/08/09 03:17:33;;;;;;;7.55;3.83;;;;;;;18.05;69.65;95296.41;5113250;27;20139;-67
2021/08/09 03:20:01;;;;;;;9.82;4.00;;;;;;;18.00;69.40;95294.53;5112869;27;20040;-68
2021/08/09 03:22:28;;;;;;;5.57;3.78;;;;;;;17.99;69.19;95297.44;5093373;27;20122;-68
2021/08/09 03:24:55;;;;;;;6.78;4.13;;;;;;;17.89;69.24;95298.25;5094605;27;20134;-68
2021/08/09 03:27:22;;;;;;;8.80;3.92;;;;;;;17.83;69.67;95300.09;5092465;28;20044;-68
2021/08/09 03:29:49;;;;;;;4.45;3.47;;;;;;;17.75;70.20;95304.03;5094656;28;20466;-68
2021/08/09 03:32:16;;;;;;;7.05;4.07;;;;;;;17.62;70.85;95304.56;5112962;27;20035;-68
2021/08/09 03:34:42;;;;;;;8.93;3.70;;;;;;;17.66;70.34;95300.34;5093023;28;20048;-68
2021/08/09 03:37:10;;;;;;;6.25;3.67;;;;;;;17.72;69.73;95301.94;5093415;28;20079;-68
2021/08/09 03:39:38;;;;;;;4.68;3.60;;;;;;;17.78;69.46;95311.41;5092150;27;20043;-68
2021/08/09 03:42:05;;;;;;;9.63;4.22;;;;;;;17.85;69.58;95313.00;5111392;27;20131;-68
2021/08/09 03:44:32;;;;;;;8.05;3.30;;;;;;;17.90;69.84;95305.13;5093996;27;20032;-68
2021/08/09 03:46:58;;;;;;;7.88;4.65;;;;;;;17.92;69.87;95308.28;5092817;27;20046;-68
2021/08/09 03:49:26;;;;;;;9.57;4.25;;;;;;;18.02;69.09;95308.25;5093274;28;20073;-68
2021/08/09 03:51:52;;;;;;;17.30;4.50;;;;;;;18.02;69.54;95310.88;5112545;27;20035;-67
2021/08/09 03:54:19;;;;;;;10.02;4.70;;;;;;;18.04;69.82;95300.88;5092760;27;20031;-68
2021/08/09 03:56:46;;;;;;;21.27;4.32;;;;;;;18.11;70.24;95311.94;5092674;28;20054;-68
2021/08/09 03:59:13;;;;;;;14.35;4.15;;;;;;;18.13;71.90;95309.00;5094177;27;20062;-67
2021/08/09 04:01:41;;;;;;;9.65;4.03;;;;;;;18.20;70.46;95314.03;5110527;27;20578;-68
2021/08/09 04:04:08;;;;;;;8.32;4.88;;;;;;;18.27;70.68;95311.91;5093124;28;20051;-68
2021/08/09 04:06:35;;;;;;;14.45;5.70;;;;;;;18.29;71.22;95315.84;5112164;27;20410;-68
2021/08/09 04:09:03;;;;;;;11.35;5.60;;;;;;;18.29;72.26;95320.31;5092351;27;20051;-68
2021/08/09 04:11:33;;;;;;;26.95;5.60;;;;;;;18.33;72.29;95318.75;5093729;27;20038;-68
2021/08/09 04:14:01;;;;;;;31.77;7.97;;;;;;;18.30;73.39;95320.06;5093618;27;20047;-68
2021/08/09 04:16:28;;;;;;;35.22;6.88;;;;;;;18.29;74.87;95307.94;5093836;28;20063;-68
2021/08/09 04:18:55;;;;;;;23.73;7.43;;;;;;;18.37;75.40;95314.50;5092826;28;20402;-68
2021/08/09 04:21:22;;;;;;;18.85;6.55;;;;;;;18.43;75.21;95308.16;5093509;27;20142;-68
2021/08/09 04:23:49;;;;;;;22.75;5.85;;;;;;;18.41;74.69;95310.28;5110694;27;20043;-68
2021/08/09 04:26:19;;;;;;;23.95;7.88;;;;;;;18.45;75.91;95321.84;5076169;27;20100;-68
2021/08/09 04:28:47;;;;;;;27.70;6.75;;;;;;;18.56;75.27;95321.84;5092370;27;20050;-68
2021/08/09 04:31:17;;;;;;;16.80;5.90;;;;;;;18.59;75.44;95316.81;5091194;28;20073;-68
2021/08/09 04:33:47;;;;;;;17.30;5.60;;;;;;;18.72;74.62;95326.00;5092232;27;20047;-68
2021/08/09 04:36:15;;;;;;;14.50;4.78;;;;;;;18.77;73.74;95323.34;5091755;28;20047;-68
2021/08/09 04:38:42;;;;;;;34.53;6.22;;;;;;;18.89;73.59;95331.75;5110092;27;20067;-68
2021/08/09 04:41:11;;;;;;;21.13;5.50;;;;;;;18.99;73.30;95332.78;5092426;27;20050;-68
2021/08/09 04:43:41;;;;;;;19.30;6.32;;;;;;;19.03;72.83;95325.88;5093177;28;20543;-68
2021/08/09 04:46:11;;;;;;;22.17;5.95;;;;;;;19.00;73.77;95315.88;5092235;27;20112;-68
2021/08/09 04:48:39;;;;;;;18.13;5.80;;;;;;;19.03;74.09;95341.72;5093390;27;20527;-68
2021/08/09 04:51:07;;;;;;;11.32;4.82;;;;;;;19.04;74.04;95338.03;5092573;28;20062;-68
2021/08/09 04:53:33;;;;;;;18.55;5.80;;;;;;;19.09;74.59;95343.28;5093018;27;20414;-68
2021/08/09 04:56:00;;;;;;;18.25;5.90;;;;;;;19.06;74.02;95341.19;5093785;27;20104;-68
2021/08/09 04:58:31;;;;;;;12.60;5.50;;;;;;;19.04;75.34;95348.59;5090944;28;20058;-68
2021/08/09 05:01:00;;;;;;;14.10;5.57;;;;;;;19.06;74.18;95346.47;5091513;27;20147;-68
2021/08/09 05:03:27;;;;;;;21.88;5.88;;;;;;;19.04;76.14;95354.66;5089998;28;20060;-68
2021/08/09 05:05:54;;;;;;;17.77;5.80;;;;;;;19.08;75.00;95350.41;5090125;28;20893;-69
2021/08/09 05:08:25;;;;;;;12.27;5.90;;;;;;;19.25;74.57;95344.78;5088691;27;20043;-69
2021/08/09 05:10:52;;;;;;;18.13;6.68;;;;;;;19.35;73.83;95353.72;5090920;28;20047;-69
2021/08/09 05:13:19;;;;;;;9.82;5.68;;;;;;;19.41;69.38;95358.69;5091752;27;20058;-70
2021/08/09 05:15:46;;;;;;;22.73;6.97;;;;;;;19.51;68.37;95352.53;5092634;27;20061;-69
2021/08/09 05:18:14;;;;;;;7.55;4.88;;;;;;;19.63;65.73;95360.91;5109237;27;20044;-69
2021/08/09 05:20:42;;;;;;;11.40;6.05;;;;;;;19.70;64.85;95357.97;5110358;27;20055;-69
2021/08/09 05:23:09;;;;;;;11.23;5.25;;;;;;;19.76;64.99;95369.31;5090751;27;20051;-69
2021/08/09 05:25:36;;;;;;;9.02;4.95;;;;;;;19.78;63.75;95367.19;5108622;27;20035;-69
2021/08/09 05:28:03;;;;;;;8.55;4.53;;;;;;;19.93;63.76;95363.63;5109636;27;20405;-69
2021/08/09 05:30:30;;;;;;;16.42;5.22;;;;;;;19.98;64.96;95372.31;5108543;27;20725;-69
2021/08/09 05:32:59;;;;;;;10.45;5.55;;;;;;;20.08;65.96;95375.94;5107038;27;20079;-69
2021/08/09 05:35:26;;;;;;;14.18;5.32;;;;;;;20.21;66.82;95375.31;5108327;27;20039;-69
2021/08/09 05:37:54;;;;;;;16.30;5.63;;;;;;;20.31;67.71;95375.22;5108604;27;20039;-69
2021/08/09 05:40:21;;;;;;;16.02;5.38;;;;;;;20.36;66.50;95361.13;5088546;28;20047;-69
2021/08/09 05:42:49;;;;;;;12.95;5.35;;;;;;;20.51;65.90;95376.06;5109725;27;20067;-68
2021/08/09 05:45:18;;;;;;;26.25;6.05;;;;;;;20.60;63.68;95366.47;5091133;28;20092;-70
2021/08/09 05:47:45;;;;;;;14.80;5.22;;;;;;;20.65;62.91;95371.72;5089562;28;20382;-69
2021/08/09 05:50:13;;;;;;;15.48;5.05;;;;;;;20.71;63.24;95367.94;5091793;28;20428;-69
2021/08/09 05:52:52;;;;;;;14.93;6.22;;;;;;;20.81;63.17;95367.03;5092159;28;20066;-70
2021/08/09 05:55:23;;;;;;;17.13;5.50;;;;;;;20.87;61.91;95375.72;5091908;28;20078;-68
2021/08/09 05:57:51;;;;;;;26.27;6.57;;;;;;;20.89;62.37;95368.28;5090714;28;20040;-69
2021/08/09 06:00:21;;;;;;;12.25;5.50;;;;;;;21.00;59.96;95378.47;5090940;28;20046;-69
2021/08/09 06:02:54;;;;;;;17.20;6.05;;;;;;;21.07;61.52;95375.47;5090664;28;20079;-68
2021/08/09 06:05:41;;;;;;;20.30;6.03;;;;;;;21.24;60.83;95376.84;5091550;28;20075;-68
2021/08/09 06:08:11;;;;;;;27.05;6.20;;;;;;;21.32;60.11;95370.91;5090061;28;20065;-69
2021/08/09 06:10:38;;;;;;;18.33;6.03;;;;;;;21.37;60.17;95374.31;5109567;28;20032;-69
2021/08/09 06:13:09;;;;;;;26.25;6.82;;;;;;;21.50;61.47;95372.03;5091145;28;20052;-69
2021/08/09 06:15:38;;;;;;;19.30;6.88;;;;;;;21.57;59.91;95373.25;5087980;28;20441;-69
2021/08/09 06:18:05;;;;;;;20.25;6.00;;;;;;;21.66;58.74;95367.28;5089043;28;20043;-70
2021/08/09 06:20:32;;;;;;;36.55;6.15;;;;;;;21.73;57.71;95357.09;5111224;28;20035;-70
2021/08/09 06:22:59;;;;;;;14.38;5.25;;;;;;;21.95;57.08;95362.59;5089455;28;20402;-69
2021/08/09 06:25:27;;;;;;;16.52;5.07;;;;;;;22.06;56.70;95365.09;5089750;28;20040;-69
2021/08/09 06:27:54;;;;;;;12.48;4.95;;;;;;;22.13;55.80;95363.63;5091125;28;20049;-69
2021/08/09 06:30:21;;;;;;;9.10;3.90;;;;;;;22.21;54.78;95359.53;5089364;28;20039;-69
2021/08/09 06:32:49;;;;;;;11.38;5.03;;;;;;;22.35;54.64;95361.47;5089646;28;20046;-69
2021/08/09 06:35:17;;;;;;;10.70;3.97;;;;;;;22.47;53.66;95351.13;5088606;28;20040;-70
2021/08/09 06:37:44;;;;;;;8.40;4.38;;;;;;;22.55;54.13;95363.72;5106950;28;20428;-70
2021/08/09 06:40:11;;;;;;;7.68;3.70;;;;;;;22.71;51.77;95362.38;5108437;28;20032;-69
2021/08/09 06:42:40;;;;;;;8.52;3.60;;;;;;;22.83;50.28;95358.41;5089997;28;20048;-71
2021/08/09 06:45:16;;;;;;;13.38;3.92;;;;;;;22.94;50.19;95357.16;5089484;28;20044;-70
2021/08/09 06:47:44;;;;;;;5.82;4.13;;;;;;;23.06;50.17;95368.06;5089751;28;20062;-70
2021/08/09 06:50:11;;;;;;;12.93;3.70;;;;;;;23.21;50.56;95363.53;5090567;28;20077;-69
2021/08/09 06:52:38;;;;;;;7.72;4.65;;;;;;;23.21;48.96;95368.84;5104744;28;20051;-70
2021/08/09 06:55:07;;;;;;;6.50;4.05;;;;;;;23.36;49.47;95381.03;5111061;27;20095;-69
2021/08/09 06:57:35;;;;;;;10.32;3.47;;;;;;;23.43;48.93;95371.56;5075056;27;20538;-69
2021/08/09 07:00:05;;;;;;;15.57;3.67;;;;;;;23.49;49.09;95366.91;5093531;27;20501;-69
2021/08/09 07:02:32;;;;;;;6.75;3.95;;;;;;;23.66;48.72;95379.59;5092921;28;20113;-71
2021/08/09 07:04:59;;;;;;;5.45;3.83;;;;;;;23.79;48.97;95368.09;5092616;28;20032;-71
2021/08/09 07:07:30;;;;;;;12.32;3.97;;;;;;;23.92;48.90;95371.03;5091956;27;20050;-70
2021/08/09 07:09:59;;;;;;;6.82;4.20;;;;;;;24.02;47.95;95365.44;5092414;28;20069;-70
2021/08/09 07:12:29;;;;;;;7.60;4.70;;;;;;;24.16;48.97;95371.47;5098176;27;20070;-70
2021/08/09 07:14:57;;;;;;;17.98;4.30;;;;;;;24.24;49.31;95372.66;5095087;27;20047;-72
2021/08/09 07:17:24;;;;;;;17.13;8.98;;;;;;;24.36;50.64;95369.41;5099603;27;20040;-70
2021/08/09 07:19:51;;;;;;;6.63;4.00;;;;;;;24.48;47.54;95369.63;5092239;27;20059;-70
2021/08/09 07:22:18;;;;;;;10.73;4.00;;;;;;;24.61;48.57;95376.78;5092674;28;20038;-70
2021/08/09 07:24:45;;;;;;;8.70;3.97;;;;;;;24.77;46.59;95373.69;5088776;27;20043;-70
2021/08/09 07:27:13;;;;;;;9.88;4.32;;;;;;;24.82;46.24;95370.91;5075633;28;20501;-70
2021/08/09 07:29:42;;;;;;;7.45;3.88;;;;;;;25.00;46.55;95377.84;5071619;28;20053;-70
2021/08/09 07:32:10;;;;;;;10.88;3.88;;;;;;;25.13;46.95;95370.03;5089257;27;20048;-71
2021/08/09 07:34:37;;;;;;;6.55;3.10;;;;;;;25.17;45.04;95365.66;5086935;28;20051;-69
2021/08/09 07:37:06;;;;;;;7.22;3.28;;;;;;;25.35;45.25;95369.97;5091355;28;20131;-69
2021/08/09 07:39:36;;;;;;;4.63;3.58;;;;;;;25.53;42.80;95367.28;5093115;28;20070;-69
2021/08/09 07:42:05;;;;;;;5.50;3.35;;;;;;;25.68;42.88;95374.84;5090196;28;20501;-70
2021/08/09 07:44:53;;;;;;;3.95;3.50;;;;;;;25.81;43.46;95372.31;5091367;28;20043;-70
2021/08/09 07:47:20;;;;;;;6.65;3.53;;;;;;;25.98;41.56;95367.00;5091209;27;20062;-70
2021/08/09 07:49:47;;;;;;;6.88;3.70;;;;;;;26.12;41.12;95378.25;5091344;28;20481;-70
2021/08/09 07:52:15;;;;;;;9.30;2.72;;;;;;;26.22;40.24;95373.72;5091780;27;20583;-70
2021/08/09 07:54:42;;;;;;;5.03;3.10;;;;;;;26.33;40.50;95372.28;5090881;28;20063;-70
2021/08/09 07:57:09;;;;;;;6.03;3.33;;;;;;;26.61;39.94;95382.56;5097101;27;20051;-70
2021/08/09 07:59:38;;;;;;;4.53;3.42;;;;;;;26.75;39.24;95385.81;5092006;27;20039;-70
2021/08/09 08:02:26;;;;;;;5.00;3.10;;;;;;;26.85;40.40;95387.38;5091188;28;20413;-70
2021/08/09 08:04:54;;;;;;;8.27;3.97;;;;;;;26.95;39.67;95375.53;5063755;28;20118;-70
2021/08/09 08:07:20;;;;;;;9.98;3.28;;;;;;;27.16;39.85;95392.38;5092897;28;20122;-70
2021/08/09 08:09:48;;;;;;;4.40;2.55;;;;;;;27.26;39.59;95392.06;5076681;27;20047;-70
2021/08/09 08:12:16;;;;;;;4.70;3.10;;;;;;;27.43;38.35;95385.03;5093374;27;20051;-69
2021/08/09 08:14:43;;;;;;;4.28;2.83;;;;;;;27.60;39.23;95384.91;5092476;28;20039;-71
2021/08/09 08:17:11;;;;;;;5.50;3.15;;;;;;;27.77;37.91;95383.22;5094945;27;20051;-70
2021/08/09 08:19:38;;;;;;;9.63;2.90;;;;;;;27.94;35.66;95383.06;5094286;28;20032;-71
2021/08/09 08:22:06;;;;;;;6.25;3.05;;;;;;;28.13;37.20;95389.84;5114563;27;20051;-72
2021/08/09 08:24:35;;;;;;;4.15;3.47;;;;;;;28.23;36.16;95378.72;5111192;27;20035;-71
2021/08/09 08:27:02;;;;;;;4.70;3.38;;;;;;;28.30;35.62;95373.59;5112042;27;20043;-71
2021/08/09 08:29:29;;;;;;;8.57;3.55;;;;;;;28.35;36.67;95376.06;5108133;27;20047;-71
2021/08/09 08:31:57;;;;;;;8.98;3.70;;;;;;;28.51;35.78;95378.88;5108143;27;20043;-71
2021/08/09 08:34:24;;;;;;;6.82;3.22;;;;;;;28.70;36.83;95374.91;5112574;27;20489;-71
2021/08/09 08:36:51;;;;;;;13.38;4.38;;;;;;;28.85;35.17;95381.53;5114565;27;20457;-71
2021/08/09 08:39:18;;;;;;;21.25;4.80;;;;;;;28.90;35.53;95379.41;5111509;27;20116;-71
2021/08/09 08:41:45;;;;;;;9.68;3.40;;;;;;;29.02;34.45;95373.25;5127705;27;20031;-71
2021/08/09 08:44:18;;;;;;;18.08;4.75;;;;;;;29.32;34.62;95381.09;5114804;27;20100;-71
2021/08/09 08:46:47;;;;;;;6.70;4.18;;;;;;;29.32;33.04;95378.41;5111903;27;20055;-71
2021/08/09 08:49:16;;;;;;;5.70;3.45;;;;;;;29.44;33.58;95381.06;5106467;27;20070;-71
2021/08/09 08:51:48;;;;;;;14.38;4.30;;;;;;;29.57;33.27;95375.66;5111093;27;20473;-71
2021/08/09 08:54:19;;;;;;;14.68;4.18;;;;;;;29.65;32.21;95370.16;5112478;27;20566;-71
2021/08/09 08:56:47;;;;;;;12.55;4.05;;;;;;;29.86;32.56;95380.75;5124752;27;20374;-71
2021/08/09 08:59:18;;;;;;;11.00;3.90;;;;;;;30.10;32.16;95363.75;5124067;27;20036;-70
2021/08/09 09:01:48;;;;;;;15.18;3.90;;;;;;;30.33;32.40;95359.72;5126700;27;20099;-71
2021/08/09 09:04:19;;;;;;;13.23;3.42;;;;;;;30.76;33.52;95376.94;5120767;27;20045;-71
2021/08/09 09:06:46;;;;;;;10.02;3.85;;;;;;;30.90;31.25;95371.91;5127121;27;20031;-71
2021/08/09 09:09:22;;;;;;;9.90;3.85;;;;;;;30.96;31.03;95375.91;5128450;27;20031;-71
2021/08/09 09:11:50;;;;;;;11.13;4.30;;;;;;;31.22;30.67;95382.63;5125739;27;20039;-71
2021/08/09 09:14:30;;;;;;;12.00;3.65;;;;;;;31.59;31.27;95374.22;5108423;27;20043;-72
2021/08/09 09:16:58;;;;;;;10.50;3.55;;;;;;;31.76;29.56;95379.19;5107109;27;20050;-72
2021/08/09 09:19:33;;;;;;;8.38;3.70;;;;;;;32.04;29.33;95380.94;5089146;28;20540;-72
2021/08/09 09:22:03;;;;;;;5.35;4.00;;;;;;;32.09;29.23;95369.06;5110123;27;20596;-71
2021/08/09 09:24:31;;;;;;;10.98;4.38;;;;;;;32.27;29.20;95364.00;5095957;27;20035;-71
2021/08/09 09:27:02;;;;;;;9.68;3.92;;;;;;;32.66;28.88;95369.31;5104297;27;20826;-71
2021/08/09 09:29:38;;;;;;;8.07;4.00;;;;;;;32.80;28.79;95361.47;5107285;27;20038;-72
2021/08/09 09:32:16;;;;;;;13.70;4.05;;;;;;;33.02;27.56;95364.50;5100551;28;20122;-72
2021/08/09 09:34:54;;;;;;;11.40;3.70;;;;;;;33.25;27.78;95367.94;5105611;27;20043;-71
2021/08/09 09:37:25;;;;;;;12.35;4.07;;;;;;;33.60;27.60;95366.88;5088235;27;20943;-72
2021/08/09 09:39:52;;;;;;;6.05;4.15;;;;;;;33.70;27.87;95368.94;5108681;27;20070;-72
2021/08/09 09:42:19;;;;;;;13.30;5.30;;;;;;;33.88;26.63;95368.38;5111990;27;20096;-71
2021/08/09 09:44:46;;;;;;;11.73;4.10;;;;;;;34.09;26.39;95363.22;5114161;27;20035;-71
2021/08/09 09:47:23;;;;;;;5.38;4.45;;;;;;;34.15;26.35;95362.88;5110635;27;20093;-71
2021/08/09 09:49:56;;;;;;;7.05;4.60;;;;;;;34.41;25.59;95354.69;5112643;27;20039;-71
2021/08/09 09:52:45;;;;;;;5.88;4.68;;;;;;;34.56;25.25;95352.09;5111878;27;20048;-71
2021/08/09 09:55:15;;;;;;;13.15;5.10;;;;;;;34.38;25.15;95350.00;5109442;27;20047;-72
2021/08/09 09:57:44;;;;;;;8.38;4.55;;;;;;;34.52;26.65;95337.75;5110001;27;20077;-71
2021/08/09 10:00:16;;;;;;;7.05;4.68;;;;;;;34.67;24.94;95350.25;5105866;28;20105;-71
2021/08/09 10:02:46;;;;;;;10.93;4.25;;;;;;;34.85;25.13;95355.84;5111211;27;20051;-72
2021/08/09 10:05:14;;;;;;;11.55;5.13;;;;;;;34.98;24.46;95343.56;5112890;27;20028;-71
2021/08/09 10:07:47;;;;;;;9.23;4.60;;;;;;;35.10;25.12;95345.19;5089132;28;20793;-72
2021/08/09 10:10:15;;;;;;;19.52;5.88;;;;;;;35.20;23.35;95344.50;5110676;28;20044;-71
2021/08/09 10:12:46;;;;;;;10.20;5.82;;;;;;;35.47;24.43;95341.53;5109041;28;20475;-72
2021/08/09 10:15:19;;;;;;;15.88;5.53;;;;;;;35.49;23.56;95343.88;5106431;28;20039;-71
2021/08/09 10:17:51;;;;;;;14.93;5.53;;;;;;;35.67;22.93;95338.53;5107920;28;20056;-72
2021/08/09 10:20:22;;;;;;;10.98;5.32;;;;;;;35.65;23.29;95338.13;5106727;28;20396;-71
2021/08/09 10:23:04;;;;;;;18.60;6.05;;;;;;;35.66;22.60;95347.84;5107645;28;20044;-72
2021/08/09 10:25:48;;;;;;;8.32;5.85;;;;;;;35.65;22.71;95335.44;5107338;28;20045;-72
2021/08/09 10:28:15;;;;;;;8.57;6.10;;;;;;;35.53;22.94;95334.63;5088642;28;20055;-72
2021/08/09 10:30:43;;;;;;;10.85;5.80;;;;;;;35.49;22.35;95328.41;5109710;27;20046;-72
2021/08/09 10:33:11;;;;;;;7.78;5.70;;;;;;;35.79;22.79;95335.50;5094586;28;20066;-72
2021/08/09 10:35:55;;;;;;;9.13;5.93;;;;;;;36.06;21.95;95337.91;5111416;27;20024;-72
2021/08/09 10:38:23;;;;;;;12.40;6.63;;;;;;;36.01;21.42;95327.44;5112553;27;20421;-72
2021/08/09 10:41:08;;;;;;;10.20;5.85;;;;;;;36.21;21.58;95334.09;5109608;27;20568;-72
2021/08/09 10:44:04;;;;;;;10.25;5.07;;;;;;;36.26;21.93;95336.41;5109280;27;20056;-72
2021/08/09 10:46:38;;;;;;;9.48;5.10;;;;;;;36.22;21.97;95335.66;5100252;27;20059;-72
2021/08/09 10:49:06;;;;;;;12.23;5.95;;;;;;;36.57;22.11;95331.41;5106582;27;20075;-72
2021/08/09 10:51:51;;;;;;;12.43;5.88;;;;;;;36.69;21.99;95325.63;5111297;27;20636;-73
2021/08/09 10:54:29;;;;;;;8.60;5.25;;;;;;;36.82;22.72;95327.94;5112231;27;20047;-72
2021/08/09 10:57:02;;;;;;;12.88;5.85;;;;;;;36.98;21.71;95322.88;5109460;27;20432;-72
2021/08/09 10:59:49;;;;;;;12.32;5.53;;;;;;;37.08;22.92;95318.63;5093904;28;20071;-72
2021/08/09 11:02:34;;;;;;;12.88;5.93;;;;;;;37.09;20.70;95307.34;5093727;28;20056;-71
2021/08/09 11:05:16;;;;;;;9.82;5.20;;;;;;;37.15;21.06;95306.94;5114836;27;20038;-72
2021/08/09 11:08:03;;;;;;;13.63;5.13;;;;;;;37.24;22.24;95310.84;5112911;27;20055;-72
2021/08/09 11:10:55;;;;;;;7.10;5.15;;;;;;;37.49;20.94;95310.75;5113311;27;20031;-72
2021/08/09 11:13:23;;;;;;;8.07;4.88;;;;;;;37.52;21.34;95313.84;5115643;27;20124;-72
2021/08/09 11:15:54;;;;;;;10.48;5.32;;;;;;;37.73;21.36;95313.78;5110830;27;20027;-73
2021/08/09 11:18:22;;;;;;;13.07;5.70;;;;;;;38.10;21.46;95307.00;5111362;27;20059;-73
2021/08/09 11:21:01;;;;;;;9.90;5.78;;;;;;;37.96;20.67;95326.06;5114777;27;20039;-73
2021/08/09 11:23:38;;;;;;;14.27;5.18;;;;;;;37.88;20.58;95303.59;5108640;27;20062;-73
2021/08/09 11:26:19;;;;;;;9.20;5.13;;;;;;;38.31;20.25;95313.47;5089307;28;20035;-72
2021/08/09 11:29:02;;;;;;;8.50;4.50;;;;;;;38.43;20.96;95315.72;5110572;27;20055;-73
2021/08/09 11:31:44;;;;;;;13.05;5.28;;;;;;;38.43;20.62;95307.56;5107352;27;20051;-73
2021/08/09 11:34:11;;;;;;;9.32;4.50;;;;;;;38.52;19.82;95307.88;5110308;27;21731;-74
2021/08/09 11:36:39;;;;;;;9.90;6.15;;;;;;;38.68;19.87;95301.94;5108117;27;20056;-73
2021/08/09 11:39:07;;;;;;;10.90;5.28;;;;;;;38.89;20.27;95300.94;5108804;27;20044;-73
2021/08/09 11:41:35;;;;;;;11.23;5.57;;;;;;;38.83;19.98;95305.28;5107389;27;20036;-73